Terminal Aerodrome Forecast
Issued by NWS Duluth, MN

Home | Current Version | Previous Version | Text Only | Print | Product List | Glossary On
Versions: 1 2 3 4 5 6 7 8 9 10 11 12 13 14 15 16 17 18 19 20 21 22 23 24 25 26 27 28 29
000
FTUS43 KDLH 070539
TAFINL
TAF
KINL 070539Z 0706/0806 17006KT P6SM -SN SCT008 BKN050
      TEMPO 0706/0708 2SM -SN BR OVC010
     FM071100 23007KT 4SM -SN BR OVC015
     FM071800 32012G20KT 2SM -SN OVC010
     FM080000 32016G24KT 6SM -SN OVC025=

USA.gov is the U.S. government's official web portal to all federal, state and local government web resources and services.